Ride Results

Sparkler (07-11-2015)
Ride distance: 81.0 km

Outcomes - Sparkler (07-11-2015)
Division No. of Entries Retired / DNE Completed Withdrawn Ineligible V/O Percentage Completed
HW 15 - 13 1 - 1 86.67%
MW 27 - 24 - - 3 88.89%
LW 19 - 15 2 - 2 78.95%
JN 17 - 17 - - - 100.00%
Totals 78 - 69 3 - 6 88.46%
Results - Sparkler (07-11-2015)
No. Rider Horse Place Time Leg Speeds Total
Km/Hr
H/R bpm
Heavyweight
177 Paul Lengronne Royal Windsor Jacob 1 (BC) 5:54:00 14.0, 13.3 13.73 38, 50, 55 (Avg:52)
176 Matthew Gadsby Ra Silver Dancer 2 6:27:00 13.6, 11.5 12.56 42, 51, 43 (Avg:47)
135 Gregg Fields Anglesea Banderas 3 7:00:00 12.0, 11.0 11.57 35, 50, 48 (Avg:49)
104 Jan Rohweder Woongarra Warrior 4 7:02:00 12.2, 10.7 11.52 38, 46, 57 (Avg:51)
111 Rod Field Brookleigh Marlon 5 7:17:00 11.8, 10.3 11.12 36, 43, 46 (Avg:44)
169 Anthony Wolgast Sweet Sensation 6 7:28:00 11.6, 9.9 10.85 34, 46, 50 (Avg:48)
102 Allen Mackenzie Hill Stone El Shahir 7 7:36:00 11.8, 9.4 10.66 34, 49, 58 (Avg:53)
151 Steve Swan Longrun Turtle Dove 8 8:00:00 10.9, 9.2 10.13 35, 48, 55 (Avg:51)
101 Gillian Taylor Cool Water Safara 9 8:07:00 11.2, 8.7 9.98 33, 54, 52 (Avg:53)
153 Maurice Gray Ra-Anji Amir 10 8:16:00 11.4, 8.3 9.80 41, 43, 48 (Avg:45)
138 Bruce Moore Brookleigh Simon 11 8:22:00 9.4, 9.9 9.68 42, 45, 52 (Avg:48)
139 Helen Moore Summer Park Douglas Explorer 11 8:22:00 9.4, 9.9 9.68 39, 40, 49 (Avg:44)
166 Gavin Bartlett Azale Atlas 13 8:52:00 9.4, 8.7 9.14 45, 50, 53 (Avg:51)
147 Jenny Bidner Cooroora Mythril Metabolics severe L1 0:00:00 10.4 - 30, 74 (Avg:74)
123 Tasha Jeremy El'Maas Ginger Kisses Withdrawn L1 0:00:00 - - 34, 46 (Avg:46)
Middleweight
126 Linda Lochtenberg Matta Mia A Latte 1 (BC) 5:15:00 16.6, 14.2 15.43 44, 52, 55 (Avg:53)
103 Gayle Holmes Cairo 2 5:47:00 14.6, 13.2 14.01 34, 54, 54 (Avg:54)
129 Marion Lengronne Flemingo Makkaddie 3 6:27:00 13.5, 11.5 12.56 39, 50, 45 (Avg:47)
108 John Dugan Performance Park Illusion 4 6:51:00 13.6, 10.1 11.82 35, 49, 52 (Avg:50)
105 Rachel Adams Zanabah Park Shylock 5 7:02:00 12.2, 10.7 11.52 36, 45, 49 (Avg:47)
132 Sasha Laws-King Heathfield's Bin Sadaqa 6 7:06:30 11.6, 11.0 11.40 34, 39, 45 (Avg:42)
141 David Urquhart Zippidy Dodah te 6 7:06:30 11.6, 11.0 11.40 35, 39, 45 (Avg:42)
113 Malin Olsson Brookleigh Ferris 8 7:17:00 11.8, 10.3 11.12 34, 44, 42 (Avg:43)
114 Brook Sample Brookleigh Federer 8 7:17:00 11.8, 10.3 11.12 42, 54, 47 (Avg:50)
148 Lexi Morton Cooroora Euros 10 7:21:30 10.4, 11.7 11.01 35, 41, 48 (Avg:44)
155 Gina Matthews Melcot Emerald 11 7:29:30 11.7, 9.8 10.81 39, 45, 47 (Avg:46)
173 Fiona Fenech Gundabah Fair Lady 12 7:29:40 11.6, 9.9 10.81 42, 48, 58 (Avg:53)
172 Angela Waldock Riverfire 12 7:29:40 11.6, 9.9 10.81 34, 42, 44 (Avg:43)
145 Brenda Davy Bashan Kadir 14 7:42:00 11.5, 9.4 10.52 44, 48, 52 (Avg:50)
149 Hannah Houlden Elfar Kaspa 15 7:49:00 11.1, 9.5 10.36 43, 46, 56 (Avg:51)
158 Hayley Sawrey Agape SamuElla Australis 15 7:49:00 11.4, 9.3 10.36 35, 40, 41 (Avg:40)
112 Lizzy Cleland Gheerulla Carley 17 7:49:30 11.5, 9.1 10.35 39, 44, 44 (Avg:44)
122 Bec Miller Hirstglen Cruisader 18 7:56:00 10.2, 10.1 10.21 31, 37, 41 (Avg:39)
150 Jackie Swan Shantele 19 8:00:00 10.9, 9.2 10.13 28, 38, 44 (Avg:41)
137 Yvonne Hain Janita La Tori 20 8:12:00 10.8, 8.9 9.88 33, 46, 58 (Avg:52)
110 Ellie Hill Castlebar Chiclana 20 8:12:00 10.8, 8.9 9.88 38, 44, 46 (Avg:45)
127 Stephen Gray Sir Avatar 22 8:16:00 11.4, 8.3 9.80 36, 44, 45 (Avg:44)
167 Olga Bartlett Mt Eerwah Anastazia 23 8:52:00 9.4, 8.7 9.14 36, 42, 43 (Avg:42)
168 Lynelle Greenwood Gheerulla Ambition 23 8:52:00 9.4, 8.7 9.14 40, 35, 57 (Avg:46)
116 Deleni Walters Brookleigh Eldorado Lame L2 0:00:00 11.5, 9.5 - 34, 44, 42 (Avg:43)
124 Angela Beverley Buck Lame L1 0:00:00 11.2 - 35, 46 (Avg:46)
157 Michelle Goudge Mt Eerwah Romonous Lame L1 0:00:00 11.4 - 40, 44 (Avg:44)
Lightweight
140 Chez Barlow Caramea Jazira 1 4:57:00 16.7, 15.9 16.36 32, 48, 45 (Avg:46)
125 Janelle Taylor Calico Jarkamarn 2 (BC) 5:15:00 16.6, 14.2 15.43 35, 45, 40 (Avg:42)
183 Sarah Love Kalkadoon Ricochet 3 5:20:00 18.0, 12.7 15.19 36, 54, 43 (Avg:48)
142 Christine Christie Sateen 4 5:53:30 14.7, 12.7 13.75 33, 45, 48 (Avg:46)
136 Jocelyn Barnes Trinity 5 6:23:00 13.3, 11.9 12.69 32, 46, 51 (Avg:48)
130 Clare Fleming Picnic Park Desert Dancer 6 6:27:00 13.5, 11.5 12.56 42, 48, 52 (Avg:50)
180 Kaylea Maher No Regret Shocking 7 6:31:00 12.2, 12.6 12.43 40, 45, 50 (Avg:47)
143 Mary Sims Mt Eerwah Silver Duet 8 6:40:00 13.4, 10.8 12.15 36, 43, 59 (Avg:51)
133 Karen Fields Lasca's Legacy 9 7:00:00 12.0, 11.0 11.57 33, 44, 48 (Avg:46)
121 Kate Appleby Bashan Bayda 10 7:38:00 11.1, 9.9 10.61 44, 53, 48 (Avg:50)
115 Hedi Laigar Magic Glenn General 11 7:58:00 10.2, 10.0 10.17 39, 40, 42 (Avg:41)
159 Sonya Ryan Kholonial Amigo 11 7:58:00 10.2, 10.0 10.17 40, 45, 59 (Avg:52)
118 Leigh Ann Sample Gheerulla Anton 11 7:58:00 10.2, 10.0 10.17 37, 47, 52 (Avg:49)
165 Christal Rizk Silver Raider 14 8:08:00 13.0, 7.7 9.96 38, 50, 40 (Avg:45)
162 Carolyn Lamb Chesney Eyes of Fire 15 8:23:00 10.2, 9.0 9.66 38, 47, 54 (Avg:50)
156 Astrid Stevenson Sonata Lame L2 0:00:00 12.1, 10.6 - 37, 44, 53 (Avg:48)
175 Robin Young Ry-Naura Dandie Withdrawn L2 0:00:00 - - 35, 47, 60 (Avg:53)
120 Mindy Davies Hirstglen Bellarina Lame L1 0:00:00 31.4 - 33, 40 (Avg:40)
109 Mandy Doyle Cajun Withdrawn P/R 0:00:00 - - 41
Junior
174 Tahlia Franke Ranek Boz 1 4:58:00 16.6, 15.9 16.31 44, 47, 48 (Avg:47)
184 Brooke Marshall Bashan Vashti 2 5:53:00 16.1, 11.6 13.77 37, 43, 46 (Avg:44)
178 Pip Ireland Aphrodite Malakia 3 (BC) 5:54:00 14.0, 13.3 13.73 35, 47, 40 (Avg:43)
179 Jodie Tilse A'Landell Ali 3 5:54:00 13.6, 13.7 13.73 42, 50, 48 (Avg:49)
106 Ben Hoey Monarch Park Cimarron 5 6:51:00 13.6, 10.1 11.82 43, 42, 56 (Avg:49)
182 Sarah Kuhn Moomba Lodge Bayley 6 7:21:00 10.2, 12.0 11.02 41, 41, 44 (Avg:42)
181 Rebecca MacPherson Tigerlilly 6 7:21:00 10.2, 12.0 11.02 38, 48, 48 (Avg:48)
170 Emma Dimech Morocco 8 7:29:00 11.6, 9.9 10.82 39, 41, 59 (Avg:50)
171 Ana Whitehead Indiana Seabreeze 8 7:29:00 11.6, 9.9 10.82 38, 38, 53 (Avg:45)
152 Shauna Wood Briallyn Kirra Bint Zanir 10 7:36:00 11.8, 9.4 10.66 37, 50, 46 (Avg:48)
146 Maeve Paten Kelkette Park Silver Envoy 11 7:42:00 11.5, 9.4 10.52 39, 49, 50 (Avg:49)
160 Louis Ryan Lindall Farouk 12 7:58:00 10.2, 10.0 10.17 37, 42, 45 (Avg:43)
161 Sam Ryan Magnum 12 7:58:00 10.2, 10.0 10.17 40, 40, 43 (Avg:41)
119 Zac Sample Kidaman Ashquar 12 7:58:00 10.2, 10.0 10.17 38, 47, 52 (Avg:49)
134 Jayd Sansucie Lavender Park Maatisse 12 7:58:00 9.5, 11.0 10.17 41, 52, 58 (Avg:55)
163 Mikaela Lamb Ausden Illusion 16 8:23:00 10.2, 9.0 9.66 38, 44, 46 (Avg:45)
164 Kenzie Roberton Lindall Flashpoint 17 8:52:00 9.9, 8.2 9.14 36, 49, 59 (Avg:54)